sensor_id;sensor_type;location;lat;lon;timestamp;P1;durP1;ratioP1;P2;durP2;ratioP2
7104;SDS011;3594;42.152;24.714;2023-04-25T00:01:33;3.97;;;2.15;;
7104;SDS011;3594;42.152;24.714;2023-04-25T00:04:02;2.97;;;2.20;;
7104;SDS011;3594;42.152;24.714;2023-04-25T00:06:28;2.95;;;2.25;;
7104;SDS011;3594;42.152;24.714;2023-04-25T00:08:56;4.28;;;2.42;;
7104;SDS011;3594;42.152;24.714;2023-04-25T00:11:22;2.70;;;2.17;;
7104;SDS011;3594;42.152;24.714;2023-04-25T00:13:48;4.03;;;2.10;;
7104;SDS011;3594;42.152;24.714;2023-04-25T00:16:14;3.13;;;2.38;;
7104;SDS011;3594;42.152;24.714;2023-04-25T00:18:41;3.83;;;2.40;;
7104;SDS011;3594;42.152;24.714;2023-04-25T00:21:07;3.83;;;2.60;;
7104;SDS011;3594;42.152;24.714;2023-04-25T00:23:33;3.20;;;1.92;;
7104;SDS011;3594;42.152;24.714;2023-04-25T00:26:00;3.35;;;2.50;;
7104;SDS011;3594;42.152;24.714;2023-04-25T00:28:26;2.60;;;2.08;;
7104;SDS011;3594;42.152;24.714;2023-04-25T00:30:51;2.90;;;2.30;;
7104;SDS011;3594;42.152;24.714;2023-04-25T00:33:16;2.88;;;2.08;;
7104;SDS011;3594;42.152;24.714;2023-04-25T00:35:42;4.38;;;2.42;;
7104;SDS011;3594;42.152;24.714;2023-04-25T00:38:07;3.30;;;2.33;;
7104;SDS011;3594;42.152;24.714;2023-04-25T00:40:32;2.67;;;2.25;;
7104;SDS011;3594;42.152;24.714;2023-04-25T00:42:58;3.15;;;2.20;;
7104;SDS011;3594;42.152;24.714;2023-04-25T00:45:25;3.70;;;2.35;;
7104;SDS011;3594;42.152;24.714;2023-04-25T00:47:54;2.83;;;2.22;;
7104;SDS011;3594;42.152;24.714;2023-04-25T00:50:19;3.13;;;2.20;;
7104;SDS011;3594;42.152;24.714;2023-04-25T00:52:45;2.47;;;2.08;;
7104;SDS011;3594;42.152;24.714;2023-04-25T00:55:11;2.78;;;2.20;;
7104;SDS011;3594;42.152;24.714;2023-04-25T00:57:37;2.90;;;2.25;;
7104;SDS011;3594;42.152;24.714;2023-04-25T01:00:03;3.40;;;2.42;;
7104;SDS011;3594;42.152;24.714;2023-04-25T01:02:31;3.08;;;2.35;;
7104;SDS011;3594;42.152;24.714;2023-04-25T01:04:57;3.20;;;2.60;;
7104;SDS011;3594;42.152;24.714;2023-04-25T01:07:23;4.75;;;2.20;;
7104;SDS011;3594;42.152;24.714;2023-04-25T01:09:48;3.75;;;2.47;;
7104;SDS011;3594;42.152;24.714;2023-04-25T01:12:16;4.35;;;2.55;;
7104;SDS011;3594;42.152;24.714;2023-04-25T01:14:42;3.88;;;2.47;;
7104;SDS011;3594;42.152;24.714;2023-04-25T01:17:08;4.60;;;2.97;;
7104;SDS011;3594;42.152;24.714;2023-04-25T01:19:34;4.18;;;2.90;;
7104;SDS011;3594;42.152;24.714;2023-04-25T01:22:00;4.00;;;3.08;;
7104;SDS011;3594;42.152;24.714;2023-04-25T01:24:26;4.22;;;2.50;;
7104;SDS011;3594;42.152;24.714;2023-04-25T01:26:51;3.80;;;2.38;;
7104;SDS011;3594;42.152;24.714;2023-04-25T01:29:18;3.38;;;2.35;;
7104;SDS011;3594;42.152;24.714;2023-04-25T01:31:45;4.28;;;2.25;;
7104;SDS011;3594;42.152;24.714;2023-04-25T01:34:11;2.95;;;2.60;;
7104;SDS011;3594;42.152;24.714;2023-04-25T01:36:37;3.42;;;2.25;;
7104;SDS011;3594;42.152;24.714;2023-04-25T01:39:02;2.88;;;2.38;;
7104;SDS011;3594;42.152;24.714;2023-04-25T01:41:28;2.50;;;2.08;;
7104;SDS011;3594;42.152;24.714;2023-04-25T01:43:54;3.22;;;2.20;;
7104;SDS011;3594;42.152;24.714;2023-04-25T01:46:20;2.42;;;1.92;;
7104;SDS011;3594;42.152;24.714;2023-04-25T01:48:45;2.63;;;2.05;;
7104;SDS011;3594;42.152;24.714;2023-04-25T01:51:11;4.70;;;2.40;;
7104;SDS011;3594;42.152;24.714;2023-04-25T01:53:37;4.70;;;2.85;;
7104;SDS011;3594;42.152;24.714;2023-04-25T01:56:03;3.35;;;2.33;;
7104;SDS011;3594;42.152;24.714;2023-04-25T01:58:29;4.97;;;2.65;;
7104;SDS011;3594;42.152;24.714;2023-04-25T02:00:54;6.93;;;3.05;;
7104;SDS011;3594;42.152;24.714;2023-04-25T02:03:19;3.13;;;2.40;;
7104;SDS011;3594;42.152;24.714;2023-04-25T02:05:45;3.65;;;2.50;;
7104;SDS011;3594;42.152;24.714;2023-04-25T02:08:10;2.90;;;2.03;;
7104;SDS011;3594;42.152;24.714;2023-04-25T02:10:36;3.92;;;2.78;;
7104;SDS011;3594;42.152;24.714;2023-04-25T02:13:02;3.83;;;2.88;;
7104;SDS011;3594;42.152;24.714;2023-04-25T02:15:28;3.75;;;2.65;;
7104;SDS011;3594;42.152;24.714;2023-04-25T02:17:53;3.25;;;2.58;;
7104;SDS011;3594;42.152;24.714;2023-04-25T02:20:22;5.07;;;3.03;;
7104;SDS011;3594;42.152;24.714;2023-04-25T02:22:49;4.28;;;3.10;;
7104;SDS011;3594;42.152;24.714;2023-04-25T02:25:14;3.80;;;2.45;;
7104;SDS011;3594;42.152;24.714;2023-04-25T02:27:41;5.00;;;2.83;;
7104;SDS011;3594;42.152;24.714;2023-04-25T02:30:07;4.30;;;2.88;;
7104;SDS011;3594;42.152;24.714;2023-04-25T02:32:33;5.13;;;2.75;;
7104;SDS011;3594;42.152;24.714;2023-04-25T02:35:02;5.43;;;3.28;;
7104;SDS011;3594;42.152;24.714;2023-04-25T02:37:32;5.38;;;3.30;;
7104;SDS011;3594;42.152;24.714;2023-04-25T02:39:57;4.25;;;2.95;;
7104;SDS011;3594;42.152;24.714;2023-04-25T02:42:23;5.05;;;2.63;;
7104;SDS011;3594;42.152;24.714;2023-04-25T02:44:48;4.00;;;2.88;;
7104;SDS011;3594;42.152;24.714;2023-04-25T02:47:14;4.38;;;3.00;;
7104;SDS011;3594;42.152;24.714;2023-04-25T02:49:39;5.53;;;3.53;;
7104;SDS011;3594;42.152;24.714;2023-04-25T02:52:05;4.32;;;3.00;;
7104;SDS011;3594;42.152;24.714;2023-04-25T02:54:31;8.15;;;3.60;;
7104;SDS011;3594;42.152;24.714;2023-04-25T02:56:56;5.57;;;3.15;;
7104;SDS011;3594;42.152;24.714;2023-04-25T02:59:22;5.65;;;3.40;;
7104;SDS011;3594;42.152;24.714;2023-04-25T03:01:47;4.55;;;3.15;;
7104;SDS011;3594;42.152;24.714;2023-04-25T03:04:12;8.45;;;3.75;;
7104;SDS011;3594;42.152;24.714;2023-04-25T03:06:38;4.75;;;3.03;;
7104;SDS011;3594;42.152;24.714;2023-04-25T03:09:03;5.80;;;3.30;;
7104;SDS011;3594;42.152;24.714;2023-04-25T03:11:29;5.38;;;3.30;;
7104;SDS011;3594;42.152;24.714;2023-04-25T03:13:54;5.25;;;2.88;;
7104;SDS011;3594;42.152;24.714;2023-04-25T03:16:20;5.38;;;3.40;;
7104;SDS011;3594;42.152;24.714;2023-04-25T03:18:47;4.60;;;2.88;;
7104;SDS011;3594;42.152;24.714;2023-04-25T03:21:12;5.03;;;3.00;;
7104;SDS011;3594;42.152;24.714;2023-04-25T03:23:37;4.47;;;2.72;;
7104;SDS011;3594;42.152;24.714;2023-04-25T03:26:03;5.85;;;3.35;;
7104;SDS011;3594;42.152;24.714;2023-04-25T03:28:28;4.05;;;2.92;;
7104;SDS011;3594;42.152;24.714;2023-04-25T03:30:53;6.88;;;3.60;;
7104;SDS011;3594;42.152;24.714;2023-04-25T03:33:19;5.93;;;3.63;;
7104;SDS011;3594;42.152;24.714;2023-04-25T03:35:44;8.20;;;3.60;;
7104;SDS011;3594;42.152;24.714;2023-04-25T03:38:10;6.53;;;3.22;;
7104;SDS011;3594;42.152;24.714;2023-04-25T03:40:36;4.13;;;2.92;;
7104;SDS011;3594;42.152;24.714;2023-04-25T03:43:01;4.75;;;3.00;;
7104;SDS011;3594;42.152;24.714;2023-04-25T03:45:26;4.47;;;3.10;;
7104;SDS011;3594;42.152;24.714;2023-04-25T03:47:52;6.25;;;3.45;;
7104;SDS011;3594;42.152;24.714;2023-04-25T03:50:17;7.13;;;3.70;;
7104;SDS011;3594;42.152;24.714;2023-04-25T03:52:43;4.68;;;3.08;;
7104;SDS011;3594;42.152;24.714;2023-04-25T03:55:08;5.93;;;2.90;;
7104;SDS011;3594;42.152;24.714;2023-04-25T03:57:34;3.75;;;2.55;;
7104;SDS011;3594;42.152;24.714;2023-04-25T04:00:00;5.30;;;3.08;;
7104;SDS011;3594;42.152;24.714;2023-04-25T04:02:26;5.15;;;3.40;;
7104;SDS011;3594;42.152;24.714;2023-04-25T04:04:51;5.75;;;3.60;;
7104;SDS011;3594;42.152;24.714;2023-04-25T04:07:16;4.70;;;3.25;;
7104;SDS011;3594;42.152;24.714;2023-04-25T04:09:42;6.20;;;3.72;;
7104;SDS011;3594;42.152;24.714;2023-04-25T04:12:07;5.07;;;3.10;;
7104;SDS011;3594;42.152;24.714;2023-04-25T04:14:33;4.60;;;3.10;;
7104;SDS011;3594;42.152;24.714;2023-04-25T04:17:09;6.22;;;3.70;;
7104;SDS011;3594;42.152;24.714;2023-04-25T04:19:38;6.97;;;3.40;;
7104;SDS011;3594;42.152;24.714;2023-04-25T04:22:03;8.32;;;3.95;;
7104;SDS011;3594;42.152;24.714;2023-04-25T04:24:28;5.63;;;3.20;;
7104;SDS011;3594;42.152;24.714;2023-04-25T04:26:54;5.93;;;3.53;;
7104;SDS011;3594;42.152;24.714;2023-04-25T04:29:20;6.13;;;3.42;;
7104;SDS011;3594;42.152;24.714;2023-04-25T04:31:48;5.78;;;3.47;;
7104;SDS011;3594;42.152;24.714;2023-04-25T04:34:14;6.47;;;3.20;;
7104;SDS011;3594;42.152;24.714;2023-04-25T04:36:41;6.57;;;4.05;;
7104;SDS011;3594;42.152;24.714;2023-04-25T04:39:07;6.10;;;3.30;;
7104;SDS011;3594;42.152;24.714;2023-04-25T04:41:34;5.78;;;3.47;;
7104;SDS011;3594;42.152;24.714;2023-04-25T04:43:59;5.90;;;3.67;;
7104;SDS011;3594;42.152;24.714;2023-04-25T04:46:26;5.32;;;3.30;;
7104;SDS011;3594;42.152;24.714;2023-04-25T04:48:52;6.47;;;3.38;;
7104;SDS011;3594;42.152;24.714;2023-04-25T04:51:18;7.75;;;3.63;;
7104;SDS011;3594;42.152;24.714;2023-04-25T04:53:44;6.53;;;3.75;;
7104;SDS011;3594;42.152;24.714;2023-04-25T04:56:09;5.57;;;3.35;;
7104;SDS011;3594;42.152;24.714;2023-04-25T04:58:35;5.30;;;3.55;;
7104;SDS011;3594;42.152;24.714;2023-04-25T05:01:01;5.80;;;3.58;;
7104;SDS011;3594;42.152;24.714;2023-04-25T05:03:27;5.30;;;3.22;;
7104;SDS011;3594;42.152;24.714;2023-04-25T05:05:53;6.00;;;3.95;;
7104;SDS011;3594;42.152;24.714;2023-04-25T05:08:18;7.18;;;3.83;;
7104;SDS011;3594;42.152;24.714;2023-04-25T05:10:43;5.90;;;3.53;;
7104;SDS011;3594;42.152;24.714;2023-04-25T05:13:09;5.95;;;3.47;;
7104;SDS011;3594;42.152;24.714;2023-04-25T05:15:34;6.20;;;3.53;;
7104;SDS011;3594;42.152;24.714;2023-04-25T05:18:00;8.13;;;3.22;;
7104;SDS011;3594;42.152;24.714;2023-04-25T05:20:26;6.30;;;3.30;;
7104;SDS011;3594;42.152;24.714;2023-04-25T05:22:52;6.22;;;3.90;;
7104;SDS011;3594;42.152;24.714;2023-04-25T05:25:17;6.82;;;3.85;;
7104;SDS011;3594;42.152;24.714;2023-04-25T05:27:42;7.65;;;3.85;;
7104;SDS011;3594;42.152;24.714;2023-04-25T05:30:08;5.10;;;3.30;;
7104;SDS011;3594;42.152;24.714;2023-04-25T05:32:34;6.45;;;3.30;;
7104;SDS011;3594;42.152;24.714;2023-04-25T05:35:00;5.13;;;3.30;;
7104;SDS011;3594;42.152;24.714;2023-04-25T05:37:26;7.78;;;3.72;;
7104;SDS011;3594;42.152;24.714;2023-04-25T05:39:51;4.63;;;3.00;;
7104;SDS011;3594;42.152;24.714;2023-04-25T05:42:16;5.78;;;3.25;;
7104;SDS011;3594;42.152;24.714;2023-04-25T05:44:42;4.60;;;2.90;;
7104;SDS011;3594;42.152;24.714;2023-04-25T05:47:07;4.95;;;3.08;;
7104;SDS011;3594;42.152;24.714;2023-04-25T05:49:33;4.25;;;2.40;;
7104;SDS011;3594;42.152;24.714;2023-04-25T05:51:59;3.42;;;2.05;;
7104;SDS011;3594;42.152;24.714;2023-04-25T05:54:25;5.32;;;2.63;;
7104;SDS011;3594;42.152;24.714;2023-04-25T05:56:50;4.65;;;2.85;;
7104;SDS011;3594;42.152;24.714;2023-04-25T05:59:15;4.25;;;2.78;;
7104;SDS011;3594;42.152;24.714;2023-04-25T06:01:41;3.40;;;2.28;;
7104;SDS011;3594;42.152;24.714;2023-04-25T06:04:06;4.38;;;2.90;;
7104;SDS011;3594;42.152;24.714;2023-04-25T06:06:32;3.20;;;2.10;;
7104;SDS011;3594;42.152;24.714;2023-04-25T06:08:57;3.53;;;2.50;;
7104;SDS011;3594;42.152;24.714;2023-04-25T06:11:23;4.80;;;2.80;;
7104;SDS011;3594;42.152;24.714;2023-04-25T06:13:48;6.10;;;2.60;;
7104;SDS011;3594;42.152;24.714;2023-04-25T06:16:13;5.25;;;2.78;;
7104;SDS011;3594;42.152;24.714;2023-04-25T06:18:39;6.78;;;3.00;;
7104;SDS011;3594;42.152;24.714;2023-04-25T06:21:05;4.03;;;2.75;;
7104;SDS011;3594;42.152;24.714;2023-04-25T06:23:30;7.25;;;2.97;;
7104;SDS011;3594;42.152;24.714;2023-04-25T06:25:55;7.63;;;3.40;;
7104;SDS011;3594;42.152;24.714;2023-04-25T06:28:21;9.15;;;2.90;;
7104;SDS011;3594;42.152;24.714;2023-04-25T06:30:47;6.82;;;3.40;;
7104;SDS011;3594;42.152;24.714;2023-04-25T06:33:13;4.70;;;3.13;;
7104;SDS011;3594;42.152;24.714;2023-04-25T06:35:38;5.40;;;2.95;;
7104;SDS011;3594;42.152;24.714;2023-04-25T06:38:04;5.38;;;3.10;;
7104;SDS011;3594;42.152;24.714;2023-04-25T06:40:29;4.03;;;2.70;;
7104;SDS011;3594;42.152;24.714;2023-04-25T06:42:54;4.28;;;2.97;;
7104;SDS011;3594;42.152;24.714;2023-04-25T06:45:20;4.03;;;2.80;;
7104;SDS011;3594;42.152;24.714;2023-04-25T06:47:45;5.75;;;3.00;;
7104;SDS011;3594;42.152;24.714;2023-04-25T06:50:10;4.13;;;2.70;;
7104;SDS011;3594;42.152;24.714;2023-04-25T06:52:36;4.60;;;3.10;;
7104;SDS011;3594;42.152;24.714;2023-04-25T06:55:01;4.53;;;2.88;;
7104;SDS011;3594;42.152;24.714;2023-04-25T06:57:27;4.68;;;2.78;;
7104;SDS011;3594;42.152;24.714;2023-04-25T06:59:53;4.63;;;2.78;;
7104;SDS011;3594;42.152;24.714;2023-04-25T07:02:18;4.18;;;2.80;;
7104;SDS011;3594;42.152;24.714;2023-04-25T07:04:43;4.35;;;2.78;;
7104;SDS011;3594;42.152;24.714;2023-04-25T07:07:10;4.82;;;3.10;;
7104;SDS011;3594;42.152;24.714;2023-04-25T07:09:36;5.95;;;3.75;;
7104;SDS011;3594;42.152;24.714;2023-04-25T07:12:01;7.75;;;3.75;;
7104;SDS011;3594;42.152;24.714;2023-04-25T07:14:27;4.63;;;3.08;;
7104;SDS011;3594;42.152;24.714;2023-04-25T07:16:53;5.20;;;3.17;;
7104;SDS011;3594;42.152;24.714;2023-04-25T07:19:20;5.63;;;3.65;;
7104;SDS011;3594;42.152;24.714;2023-04-25T07:21:46;4.85;;;2.97;;
7104;SDS011;3594;42.152;24.714;2023-04-25T07:24:11;5.45;;;2.97;;
7104;SDS011;3594;42.152;24.714;2023-04-25T07:26:37;5.70;;;3.13;;
7104;SDS011;3594;42.152;24.714;2023-04-25T07:29:02;5.25;;;2.95;;
7104;SDS011;3594;42.152;24.714;2023-04-25T07:31:28;4.75;;;3.28;;
7104;SDS011;3594;42.152;24.714;2023-04-25T07:33:53;6.47;;;3.38;;
7104;SDS011;3594;42.152;24.714;2023-04-25T07:36:18;9.95;;;3.10;;
7104;SDS011;3594;42.152;24.714;2023-04-25T07:38:44;5.43;;;3.05;;
7104;SDS011;3594;42.152;24.714;2023-04-25T07:41:09;4.03;;;2.60;;
7104;SDS011;3594;42.152;24.714;2023-04-25T07:43:34;4.05;;;2.67;;
7104;SDS011;3594;42.152;24.714;2023-04-25T07:46:00;3.72;;;2.53;;
7104;SDS011;3594;42.152;24.714;2023-04-25T07:48:28;3.83;;;2.47;;
7104;SDS011;3594;42.152;24.714;2023-04-25T07:50:54;4.40;;;2.25;;
7104;SDS011;3594;42.152;24.714;2023-04-25T07:53:19;4.03;;;2.60;;
7104;SDS011;3594;42.152;24.714;2023-04-25T07:55:45;3.78;;;2.40;;
7104;SDS011;3594;42.152;24.714;2023-04-25T07:58:11;4.22;;;2.97;;
7104;SDS011;3594;42.152;24.714;2023-04-25T08:00:36;4.97;;;2.70;;
7104;SDS011;3594;42.152;24.714;2023-04-25T08:03:02;4.53;;;2.50;;
7104;SDS011;3594;42.152;24.714;2023-04-25T08:05:28;3.90;;;2.58;;
7104;SDS011;3594;42.152;24.714;2023-04-25T08:07:53;3.50;;;2.55;;
7104;SDS011;3594;42.152;24.714;2023-04-25T08:10:22;3.85;;;2.25;;
7104;SDS011;3594;42.152;24.714;2023-04-25T08:12:48;3.70;;;2.60;;
7104;SDS011;3594;42.152;24.714;2023-04-25T08:15:13;2.72;;;2.05;;
7104;SDS011;3594;42.152;24.714;2023-04-25T08:17:40;3.25;;;2.42;;
7104;SDS011;3594;42.152;24.714;2023-04-25T08:20:06;2.90;;;2.25;;
7104;SDS011;3594;42.152;24.714;2023-04-25T08:22:31;2.92;;;2.13;;
7104;SDS011;3594;42.152;24.714;2023-04-25T08:24:57;3.55;;;2.60;;
7104;SDS011;3594;42.152;24.714;2023-04-25T08:27:22;3.25;;;2.10;;
7104;SDS011;3594;42.152;24.714;2023-04-25T08:29:48;2.55;;;2.20;;
7104;SDS011;3594;42.152;24.714;2023-04-25T08:32:14;4.75;;;2.35;;
7104;SDS011;3594;42.152;24.714;2023-04-25T08:34:39;3.15;;;2.30;;
7104;SDS011;3594;42.152;24.714;2023-04-25T08:37:07;2.95;;;2.15;;
7104;SDS011;3594;42.152;24.714;2023-04-25T08:39:33;4.03;;;2.42;;
7104;SDS011;3594;42.152;24.714;2023-04-25T08:41:58;2.72;;;2.08;;
7104;SDS011;3594;42.152;24.714;2023-04-25T08:44:25;5.40;;;2.40;;
7104;SDS011;3594;42.152;24.714;2023-04-25T08:46:52;3.53;;;2.20;;
7104;SDS011;3594;42.152;24.714;2023-04-25T08:49:18;3.08;;;2.30;;
7104;SDS011;3594;42.152;24.714;2023-04-25T08:51:44;4.55;;;2.47;;
7104;SDS011;3594;42.152;24.714;2023-04-25T08:54:15;3.38;;;2.40;;
7104;SDS011;3594;42.152;24.714;2023-04-25T08:56:43;4.13;;;2.75;;
7104;SDS011;3594;42.152;24.714;2023-04-25T08:59:11;5.47;;;2.75;;
7104;SDS011;3594;42.152;24.714;2023-04-25T09:01:37;3.45;;;2.50;;
7104;SDS011;3594;42.152;24.714;2023-04-25T09:04:02;5.13;;;2.80;;
7104;SDS011;3594;42.152;24.714;2023-04-25T09:06:28;3.03;;;2.45;;
7104;SDS011;3594;42.152;24.714;2023-04-25T09:09:00;3.95;;;2.50;;
7104;SDS011;3594;42.152;24.714;2023-04-25T09:11:28;5.95;;;2.67;;
7104;SDS011;3594;42.152;24.714;2023-04-25T09:14:09;3.47;;;2.58;;
7104;SDS011;3594;42.152;24.714;2023-04-25T09:19:34;2.97;;;2.20;;
7104;SDS011;3594;42.152;24.714;2023-04-25T09:22:02;3.85;;;2.55;;
7104;SDS011;3594;42.152;24.714;2023-04-25T09:27:07;4.53;;;3.25;;
7104;SDS011;3594;42.152;24.714;2023-04-25T09:29:35;3.75;;;2.40;;
7104;SDS011;3594;42.152;24.714;2023-04-25T09:32:21;4.97;;;3.10;;
7104;SDS011;3594;42.152;24.714;2023-04-25T09:34:49;3.65;;;2.80;;
7104;SDS011;3594;42.152;24.714;2023-04-25T09:37:23;5.55;;;3.42;;
7104;SDS011;3594;42.152;24.714;2023-04-25T09:39:50;4.93;;;3.40;;
7104;SDS011;3594;42.152;24.714;2023-04-25T09:42:23;5.28;;;3.60;;
7104;SDS011;3594;42.152;24.714;2023-04-25T09:44:51;6.60;;;3.83;;
7104;SDS011;3594;42.152;24.714;2023-04-25T09:47:17;6.40;;;3.58;;
7104;SDS011;3594;42.152;24.714;2023-04-25T09:49:43;6.45;;;3.15;;
7104;SDS011;3594;42.152;24.714;2023-04-25T09:52:13;4.25;;;2.95;;
7104;SDS011;3594;42.152;24.714;2023-04-25T09:54:40;4.30;;;3.00;;
7104;SDS011;3594;42.152;24.714;2023-04-25T09:57:09;4.30;;;3.42;;
7104;SDS011;3594;42.152;24.714;2023-04-25T09:59:36;4.50;;;3.15;;
7104;SDS011;3594;42.152;24.714;2023-04-25T10:02:04;3.72;;;2.60;;
7104;SDS011;3594;42.152;24.714;2023-04-25T10:04:33;4.65;;;3.00;;
7104;SDS011;3594;42.152;24.714;2023-04-25T10:06:59;4.10;;;2.83;;
7104;SDS011;3594;42.152;24.714;2023-04-25T10:09:26;3.90;;;2.80;;
7104;SDS011;3594;42.152;24.714;2023-04-25T10:11:54;4.40;;;2.60;;
7104;SDS011;3594;42.152;24.714;2023-04-25T10:14:20;6.78;;;2.60;;
7104;SDS011;3594;42.152;24.714;2023-04-25T10:16:47;3.85;;;2.97;;
7104;SDS011;3594;42.152;24.714;2023-04-25T10:19:13;4.35;;;2.78;;
7104;SDS011;3594;42.152;24.714;2023-04-25T10:24:30;3.50;;;2.53;;
7104;SDS011;3594;42.152;24.714;2023-04-25T10:26:57;3.15;;;2.47;;
7104;SDS011;3594;42.152;24.714;2023-04-25T10:29:26;3.83;;;2.38;;
7104;SDS011;3594;42.152;24.714;2023-04-25T10:31:52;3.85;;;2.78;;
7104;SDS011;3594;42.152;24.714;2023-04-25T10:34:18;3.67;;;2.65;;
7104;SDS011;3594;42.152;24.714;2023-04-25T10:36:51;2.38;;;2.03;;
7104;SDS011;3594;42.152;24.714;2023-04-25T10:39:24;3.42;;;2.58;;
7104;SDS011;3594;42.152;24.714;2023-04-25T10:41:56;3.03;;;2.20;;
7104;SDS011;3594;42.152;24.714;2023-04-25T10:44:22;3.83;;;2.55;;
7104;SDS011;3594;42.152;24.714;2023-04-25T10:46:51;4.35;;;2.45;;
7104;SDS011;3594;42.152;24.714;2023-04-25T10:55:03;2.45;;;1.80;;
7104;SDS011;3594;42.152;24.714;2023-04-25T10:57:32;3.10;;;2.17;;
7104;SDS011;3594;42.152;24.714;2023-04-25T11:02:55;2.88;;;1.80;;
7104;SDS011;3594;42.152;24.714;2023-04-25T11:05:31;2.17;;;1.95;;
7104;SDS011;3594;42.152;24.714;2023-04-25T11:07:58;2.42;;;1.75;;
7104;SDS011;3594;42.152;24.714;2023-04-25T11:10:26;2.65;;;1.75;;
7104;SDS011;3594;42.152;24.714;2023-04-25T11:12:52;2.10;;;1.70;;
7104;SDS011;3594;42.152;24.714;2023-04-25T11:15:18;2.50;;;1.88;;
7104;SDS011;3594;42.152;24.714;2023-04-25T11:17:43;2.25;;;1.55;;
7104;SDS011;3594;42.152;24.714;2023-04-25T11:20:11;2.47;;;1.98;;
7104;SDS011;3594;42.152;24.714;2023-04-25T11:22:38;2.60;;;2.00;;
7104;SDS011;3594;42.152;24.714;2023-04-25T11:25:08;2.47;;;2.10;;
7104;SDS011;3594;42.152;24.714;2023-04-25T11:27:49;2.38;;;1.92;;
7104;SDS011;3594;42.152;24.714;2023-04-25T11:30:15;2.53;;;2.08;;
7104;SDS011;3594;42.152;24.714;2023-04-25T11:32:41;2.55;;;1.73;;
7104;SDS011;3594;42.152;24.714;2023-04-25T11:35:07;2.47;;;2.00;;
7104;SDS011;3594;42.152;24.714;2023-04-25T11:37:33;1.80;;;1.67;;
7104;SDS011;3594;42.152;24.714;2023-04-25T11:39:59;2.35;;;1.63;;
7104;SDS011;3594;42.152;24.714;2023-04-25T11:42:25;2.92;;;1.90;;
7104;SDS011;3594;42.152;24.714;2023-04-25T11:44:51;2.95;;;1.80;;
7104;SDS011;3594;42.152;24.714;2023-04-25T11:47:17;2.08;;;1.88;;
7104;SDS011;3594;42.152;24.714;2023-04-25T11:49:42;2.95;;;1.90;;
7104;SDS011;3594;42.152;24.714;2023-04-25T11:52:08;2.30;;;1.48;;
7104;SDS011;3594;42.152;24.714;2023-04-25T11:54:36;2.10;;;1.70;;
7104;SDS011;3594;42.152;24.714;2023-04-25T11:57:02;1.92;;;1.50;;
7104;SDS011;3594;42.152;24.714;2023-04-25T11:59:35;2.47;;;1.75;;
7104;SDS011;3594;42.152;24.714;2023-04-25T12:02:00;3.10;;;1.70;;
7104;SDS011;3594;42.152;24.714;2023-04-25T12:04:29;1.75;;;1.65;;
7104;SDS011;3594;42.152;24.714;2023-04-25T12:06:55;2.72;;;2.20;;
7104;SDS011;3594;42.152;24.714;2023-04-25T12:09:28;2.80;;;2.17;;
7104;SDS011;3594;42.152;24.714;2023-04-25T12:11:56;4.97;;;2.65;;
7104;SDS011;3594;42.152;24.714;2023-04-25T12:14:33;5.18;;;2.85;;
7104;SDS011;3594;42.152;24.714;2023-04-25T12:17:00;3.88;;;2.45;;
7104;SDS011;3594;42.152;24.714;2023-04-25T12:19:33;3.67;;;2.38;;
7104;SDS011;3594;42.152;24.714;2023-04-25T12:22:01;3.35;;;2.55;;
7104;SDS011;3594;42.152;24.714;2023-04-25T12:24:32;6.10;;;2.47;;
7104;SDS011;3594;42.152;24.714;2023-04-25T12:29:26;3.08;;;2.38;;
7104;SDS011;3594;42.152;24.714;2023-04-25T12:31:53;4.28;;;2.53;;
7104;SDS011;3594;42.152;24.714;2023-04-25T12:34:20;3.90;;;2.70;;
7104;SDS011;3594;42.152;24.714;2023-04-25T12:36:46;4.43;;;2.70;;
7104;SDS011;3594;42.152;24.714;2023-04-25T12:39:15;6.00;;;2.78;;
7104;SDS011;3594;42.152;24.714;2023-04-25T12:41:48;4.18;;;2.63;;
7104;SDS011;3594;42.152;24.714;2023-04-25T12:44:15;4.85;;;3.30;;
7104;SDS011;3594;42.152;24.714;2023-04-25T12:46:41;6.38;;;4.20;;
7104;SDS011;3594;42.152;24.714;2023-04-25T12:49:06;5.53;;;3.10;;
7104;SDS011;3594;42.152;24.714;2023-04-25T12:51:33;4.95;;;2.95;;
7104;SDS011;3594;42.152;24.714;2023-04-25T12:53:59;4.40;;;2.67;;
7104;SDS011;3594;42.152;24.714;2023-04-25T12:56:26;3.80;;;2.60;;
7104;SDS011;3594;42.152;24.714;2023-04-25T12:58:52;4.53;;;2.67;;
7104;SDS011;3594;42.152;24.714;2023-04-25T13:01:19;4.70;;;2.40;;
7104;SDS011;3594;42.152;24.714;2023-04-25T13:03:45;4.80;;;2.50;;
7104;SDS011;3594;42.152;24.714;2023-04-25T13:06:14;2.92;;;2.17;;
7104;SDS011;3594;42.152;24.714;2023-04-25T13:08:40;3.08;;;2.15;;
7104;SDS011;3594;42.152;24.714;2023-04-25T13:11:06;2.45;;;1.90;;
7104;SDS011;3594;42.152;24.714;2023-04-25T13:13:31;2.80;;;2.22;;
7104;SDS011;3594;42.152;24.714;2023-04-25T13:16:05;1.85;;;1.75;;
7104;SDS011;3594;42.152;24.714;2023-04-25T13:18:31;2.65;;;2.03;;
7104;SDS011;3594;42.152;24.714;2023-04-25T13:20:57;2.40;;;1.75;;
7104;SDS011;3594;42.152;24.714;2023-04-25T13:23:25;2.28;;;1.88;;
7104;SDS011;3594;42.152;24.714;2023-04-25T13:25:51;2.08;;;1.73;;
7104;SDS011;3594;42.152;24.714;2023-04-25T13:28:17;2.30;;;1.80;;
7104;SDS011;3594;42.152;24.714;2023-04-25T13:30:42;1.95;;;1.63;;
7104;SDS011;3594;42.152;24.714;2023-04-25T13:33:08;2.65;;;1.95;;
7104;SDS011;3594;42.152;24.714;2023-04-25T13:35:40;1.90;;;1.45;;
7104;SDS011;3594;42.152;24.714;2023-04-25T13:38:06;2.10;;;1.80;;
7104;SDS011;3594;42.152;24.714;2023-04-25T13:40:32;1.90;;;1.48;;
7104;SDS011;3594;42.152;24.714;2023-04-25T13:42:57;1.73;;;1.50;;
7104;SDS011;3594;42.152;24.714;2023-04-25T13:45:23;2.70;;;1.90;;
7104;SDS011;3594;42.152;24.714;2023-04-25T13:47:48;1.88;;;1.65;;
7104;SDS011;3594;42.152;24.714;2023-04-25T13:50:14;1.67;;;1.55;;
7104;SDS011;3594;42.152;24.714;2023-04-25T13:52:40;2.15;;;1.60;;
7104;SDS011;3594;42.152;24.714;2023-04-25T13:55:06;1.67;;;1.40;;
7104;SDS011;3594;42.152;24.714;2023-04-25T13:57:33;1.83;;;1.52;;
7104;SDS011;3594;42.152;24.714;2023-04-25T13:59:59;2.08;;;1.70;;
7104;SDS011;3594;42.152;24.714;2023-04-25T14:02:29;2.03;;;1.73;;
7104;SDS011;3594;42.152;24.714;2023-04-25T14:04:55;2.00;;;1.65;;
7104;SDS011;3594;42.152;24.714;2023-04-25T14:07:20;1.88;;;1.60;;
7104;SDS011;3594;42.152;24.714;2023-04-25T14:09:46;1.70;;;1.58;;
7104;SDS011;3594;42.152;24.714;2023-04-25T14:12:11;1.65;;;1.50;;
7104;SDS011;3594;42.152;24.714;2023-04-25T14:14:37;1.98;;;1.70;;
7104;SDS011;3594;42.152;24.714;2023-04-25T14:17:03;1.70;;;1.50;;
7104;SDS011;3594;42.152;24.714;2023-04-25T14:19:28;2.30;;;1.75;;
7104;SDS011;3594;42.152;24.714;2023-04-25T14:21:54;1.90;;;1.60;;
7104;SDS011;3594;42.152;24.714;2023-04-25T14:24:20;1.80;;;1.50;;
7104;SDS011;3594;42.152;24.714;2023-04-25T14:26:45;2.22;;;1.70;;
7104;SDS011;3594;42.152;24.714;2023-04-25T14:29:11;1.70;;;1.60;;
7104;SDS011;3594;42.152;24.714;2023-04-25T14:31:37;1.98;;;1.60;;
7104;SDS011;3594;42.152;24.714;2023-04-25T14:34:06;2.15;;;1.50;;
7104;SDS011;3594;42.152;24.714;2023-04-25T14:36:32;2.15;;;1.60;;
7104;SDS011;3594;42.152;24.714;2023-04-25T14:38:58;2.38;;;1.70;;
7104;SDS011;3594;42.152;24.714;2023-04-25T14:41:24;2.20;;;1.67;;
7104;SDS011;3594;42.152;24.714;2023-04-25T14:43:51;1.75;;;1.60;;
7104;SDS011;3594;42.152;24.714;2023-04-25T14:46:17;2.33;;;1.90;;
7104;SDS011;3594;42.152;24.714;2023-04-25T14:48:43;1.60;;;1.50;;
7104;SDS011;3594;42.152;24.714;2023-04-25T14:51:09;1.70;;;1.40;;
7104;SDS011;3594;42.152;24.714;2023-04-25T14:53:35;1.73;;;1.60;;
7104;SDS011;3594;42.152;24.714;2023-04-25T14:56:01;1.27;;;1.17;;
7104;SDS011;3594;42.152;24.714;2023-04-25T14:58:26;1.90;;;1.38;;
7104;SDS011;3594;42.152;24.714;2023-04-25T15:00:52;1.75;;;1.40;;
7104;SDS011;3594;42.152;24.714;2023-04-25T15:03:17;2.05;;;1.33;;
7104;SDS011;3594;42.152;24.714;2023-04-25T15:05:43;2.00;;;1.40;;
7104;SDS011;3594;42.152;24.714;2023-04-25T15:08:08;1.55;;;1.30;;
7104;SDS011;3594;42.152;24.714;2023-04-25T15:10:35;1.65;;;1.40;;
7104;SDS011;3594;42.152;24.714;2023-04-25T15:13:00;4.00;;;1.40;;
7104;SDS011;3594;42.152;24.714;2023-04-25T15:15:26;1.27;;;1.10;;